createdAt,value
2022-12-09T10:31:49.909Z,24.48
2022-12-09T10:33:30.704Z,24.20
2022-12-09T10:35:33.517Z,23.48
2022-12-09T10:37:05.778Z,22.88
2022-12-09T10:38:41.854Z,23.13
2022-12-09T10:40:21.114Z,23.85
2022-12-09T10:42:16.071Z,23.60
2022-12-09T10:43:48.004Z,25.60
2022-12-09T10:45:20.316Z,24.02
2022-12-09T10:47:08.064Z,23.83
2022-12-09T10:48:47.579Z,25.20
2022-12-09T10:50:31.704Z,22.77
2022-12-09T10:52:05.453Z,24.58
2022-12-09T10:53:44.001Z,22.58
2022-12-09T10:55:32.964Z,23.27
2022-12-09T10:57:14.447Z,21.63
2022-12-09T10:58:46.653Z,22.38
2022-12-09T11:00:28.323Z,22.25
2022-12-09T11:02:06.305Z,21.00
2022-12-09T11:03:47.583Z,22.27
2022-12-09T11:05:28.741Z,19.88
2022-12-09T11:07:15.078Z,22.40
2022-12-09T11:08:59.389Z,21.42
2022-12-09T11:10:48.379Z,22.15
2022-12-09T11:12:41.743Z,24.17
2022-12-09T11:14:23.086Z,26.50
2022-12-09T11:15:59.481Z,25.35
2022-12-09T11:17:35.940Z,23.85
2022-12-09T11:19:14.325Z,26.15
2022-12-09T11:20:58.179Z,27.67
2022-12-09T11:22:41.245Z,26.73
2022-12-09T11:24:22.002Z,22.90
2022-12-09T11:25:58.618Z,26.03
2022-12-09T11:27:33.376Z,22.27
2022-12-09T11:29:15.727Z,21.25
2022-12-09T11:31:28.347Z,19.55
2022-12-09T11:33:13.107Z,19.20
2022-12-09T11:34:46.379Z,22.40
2022-12-09T11:36:25.641Z,23.67
2022-12-09T11:38:04.493Z,21.90
2022-12-09T11:39:37.835Z,22.60
2022-12-09T11:41:09.499Z,23.25
2022-12-09T11:42:41.608Z,21.73
2022-12-09T11:44:26.643Z,22.77
2022-12-09T11:45:59.071Z,22.55
2022-12-09T11:48:13.879Z,23.77
2022-12-09T11:49:32.874Z,24.73
2022-12-09T11:51:04.911Z,27.15
2022-12-09T11:52:36.725Z,27.52
2022-12-09T11:54:15.558Z,25.42
2022-12-09T11:55:52.561Z,23.65
2022-12-09T11:57:51.352Z,25.52
2022-12-09T11:59:33.475Z,26.20
2022-12-09T12:01:43.815Z,25.42
2022-12-09T12:03:30.089Z,25.30
2022-12-09T12:05:21.609Z,27.45
2022-12-09T12:07:01.255Z,27.42
2022-12-09T12:08:40.514Z,25.42
2022-12-09T12:10:23.446Z,24.10
2022-12-09T12:12:33.233Z,25.05
2022-12-09T12:14:15.130Z,22.75
2022-12-09T12:15:52.665Z,23.63
2022-12-09T12:17:36.864Z,25.10
2022-12-09T12:19:25.354Z,25.75
2022-12-09T12:21:30.733Z,26.75
2022-12-09T12:23:30.593Z,26.42
2022-12-09T12:25:22.210Z,27.90
2022-12-09T12:29:00.102Z,21.85
2022-12-09T12:30:56.288Z,27.25
2022-12-09T12:32:42.919Z,27.67
2022-12-09T12:34:38.911Z,21.52
2022-12-09T12:36:27.500Z,22.83
2022-12-09T12:38:23.137Z,25.42
2022-12-09T12:40:03.874Z,20.27
2022-12-09T12:42:01.225Z,20.40
2022-12-09T12:44:04.089Z,24.30
2022-12-09T12:46:16.471Z,22.38
2022-12-09T12:48:07.154Z,19.45
2022-12-09T12:49:41.644Z,18.92
2022-12-09T12:51:19.200Z,19.48
2022-12-09T12:52:57.160Z,21.50
2022-12-09T12:54:47.647Z,21.38
2022-12-09T12:56:25.482Z,20.05
2022-12-09T12:58:29.542Z,18.58
2022-12-09T13:00:20.024Z,19.75
2022-12-09T13:02:07.221Z,19.58
2022-12-09T13:03:43.795Z,18.67
2022-12-09T13:05:45.976Z,17.02
2022-12-09T13:07:48.211Z,16.55
2022-12-09T13:09:29.463Z,15.70
2022-12-09T13:11:08.866Z,18.00
2022-12-09T13:12:56.759Z,21.50
2022-12-09T13:14:39.384Z,20.92
2022-12-09T13:16:31.150Z,22.88
2022-12-09T13:18:11.868Z,20.67
2022-12-09T13:19:48.856Z,18.70
2022-12-09T13:21:22.112Z,20.50
2022-12-09T13:23:11.190Z,22.90
2022-12-09T13:25:00.335Z,21.70
2022-12-09T13:27:16.054Z,20.15
2022-12-09T13:29:06.031Z,19.70
2022-12-09T13:30:53.919Z,19.63
2022-12-09T13:32:47.751Z,17.95
2022-12-09T13:34:40.585Z,17.63
2022-12-09T13:36:26.232Z,16.00
2022-12-09T13:37:59.705Z,16.40
2022-12-09T13:39:40.616Z,17.05
2022-12-09T13:41:56.453Z,11.32
2022-12-09T13:43:31.702Z,14.85
2022-12-09T13:45:32.291Z,14.68
2022-12-09T13:47:33.598Z,13.63
2022-12-09T13:49:24.766Z,14.80
2022-12-09T13:50:59.721Z,15.15
2022-12-09T13:53:06.887Z,15.13
2022-12-09T13:54:48.132Z,15.00
2022-12-09T13:56:25.036Z,14.82
2022-12-09T13:58:07.657Z,14.38
2022-12-09T13:59:59.265Z,14.38
2022-12-09T14:03:29.818Z,13.32
2022-12-09T14:05:01.523Z,14.82
2022-12-09T14:06:44.328Z,15.00
2022-12-09T14:08:24.938Z,16.08
2022-12-09T14:09:58.756Z,15.48
2022-12-09T14:11:43.934Z,15.50
2022-12-09T14:13:35.701Z,15.70
2022-12-09T14:15:25.499Z,17.13
2022-12-09T14:16:59.580Z,16.83
2022-12-09T14:18:33.089Z,17.10
2022-12-09T14:20:21.328Z,16.33
2022-12-09T14:22:19.243Z,16.70
2022-12-09T14:24:09.639Z,15.32
2022-12-09T14:25:51.125Z,14.63
2022-12-09T14:27:25.779Z,16.20
2022-12-09T14:28:57.736Z,16.27
2022-12-09T14:30:29.550Z,18.40
2022-12-09T14:32:03.586Z,21.65
2022-12-09T14:33:38.447Z,20.00
2022-12-09T14:35:10.184Z,19.88
2022-12-09T14:36:54.256Z,21.95
2022-12-09T14:39:08.355Z,19.60
2022-12-09T14:40:47.363Z,18.05
2022-12-09T14:42:52.236Z,17.77
2022-12-09T14:44:39.527Z,15.40
2022-12-09T14:46:33.536Z,15.55
2022-12-09T14:48:11.943Z,17.02
2022-12-09T14:49:49.222Z,18.27
2022-12-09T14:51:33.240Z,16.27
2022-12-09T14:53:11.025Z,16.58
2022-12-09T14:54:46.364Z,17.17
2022-12-09T14:56:20.051Z,18.08
2022-12-09T14:57:53.834Z,17.13
2022-12-09T14:59:28.691Z,17.40
2022-12-09T15:01:03.087Z,16.98
2022-12-09T15:02:34.944Z,16.98
2022-12-09T15:04:07.197Z,17.33
2022-12-09T15:05:39.012Z,18.92
2022-12-09T15:07:16.824Z,17.67
2022-12-09T15:08:51.181Z,18.25
2022-12-09T15:10:34.552Z,17.30
2022-12-09T15:12:11.350Z,15.77
2022-12-09T15:13:47.002Z,15.57
2022-12-09T15:15:24.293Z,16.42
2022-12-09T15:16:57.560Z,15.00
2022-12-09T15:18:37.744Z,15.05
2022-12-09T15:20:23.793Z,16.10
2022-12-09T15:21:56.021Z,20.48
2022-12-09T15:23:34.707Z,15.23
2022-12-09T15:25:16.394Z,16.08
2022-12-09T15:27:02.810Z,16.27
2022-12-09T15:28:37.505Z,17.10
2022-12-09T15:30:21.349Z,16.27
2022-12-09T15:31:53.816Z,15.45
2022-12-09T15:33:27.401Z,17.05
2022-12-09T15:35:20.352Z,17.13
2022-12-09T15:37:05.753Z,15.60
2022-12-09T15:38:42.023Z,14.27
2022-12-09T15:40:18.569Z,16.10
2022-12-09T15:42:08.313Z,14.70
2022-12-09T15:43:42.784Z,14.82
2022-12-09T15:45:21.389Z,17.52
2022-12-09T15:46:55.868Z,15.23
2022-12-09T15:48:34.086Z,14.52
2022-12-09T15:50:36.801Z,16.73
2022-12-09T15:52:08.818Z,16.23
2022-12-09T15:53:40.543Z,18.70
2022-12-09T15:55:16.069Z,17.88
2022-12-09T15:57:02.998Z,17.65
2022-12-09T15:58:40.038Z,17.38
2022-12-09T16:00:12.504Z,19.27
2022-12-09T16:01:50.863Z,18.58
2022-12-09T16:03:27.577Z,16.67
2022-12-09T16:05:05.486Z,17.75
2022-12-09T16:06:38.137Z,16.42
2022-12-09T16:08:10.753Z,16.13
2022-12-09T16:10:08.475Z,16.23
2022-12-09T16:11:43.921Z,18.05
2022-12-09T16:13:19.423Z,16.63
2022-12-09T16:14:51.430Z,15.45
2022-12-09T16:16:26.856Z,17.83
2022-12-09T16:18:03.009Z,16.65
2022-12-09T16:19:36.707Z,15.40
2022-12-09T16:21:36.161Z,16.50
2022-12-09T16:23:20.467Z,15.07
2022-12-09T16:25:14.201Z,13.45
2022-12-09T16:26:48.550Z,15.65
2022-12-09T16:28:25.458Z,15.45
2022-12-09T16:30:03.697Z,15.13
2022-12-09T16:31:35.849Z,14.15
2022-12-09T16:33:21.217Z,15.63
2022-12-09T16:34:55.967Z,16.00
2022-12-09T16:36:31.063Z,14.15
2022-12-09T16:38:09.565Z,16.63
2022-12-09T16:39:41.488Z,14.50
2022-12-09T16:41:13.550Z,14.85
2022-12-09T16:42:45.356Z,14.57
2022-12-09T16:44:40.659Z,15.43
2022-12-09T16:46:12.397Z,18.80
2022-12-09T16:47:45.407Z,15.15
2022-12-09T16:49:17.283Z,14.85
2022-12-09T16:51:06.481Z,15.13
2022-12-09T16:52:39.245Z,14.25
2022-12-09T16:54:20.137Z,13.57
2022-12-09T16:56:01.487Z,14.55
2022-12-09T16:57:33.204Z,14.80
2022-12-09T16:59:05.174Z,15.75
2022-12-09T17:00:37.837Z,14.20
2022-12-09T17:02:25.114Z,17.25
2022-12-09T17:04:12.294Z,15.45
2022-12-09T17:05:47.793Z,15.18
2022-12-09T17:07:19.983Z,15.57
2022-12-09T17:08:51.823Z,16.17
2022-12-09T17:10:23.592Z,17.65
2022-12-09T17:11:55.365Z,16.33
2022-12-09T17:13:27.922Z,16.30
2022-12-09T17:14:59.698Z,17.15
2022-12-09T17:16:31.631Z,16.50
2022-12-09T17:18:03.643Z,17.75
2022-12-09T17:19:35.833Z,15.98
2022-12-09T17:21:13.188Z,15.77
2022-12-09T17:22:45.013Z,16.90
2022-12-09T17:24:17.276Z,18.30
2022-12-09T17:25:56.551Z,18.00
2022-12-09T17:27:28.529Z,16.88
2022-12-09T17:29:02.026Z,18.05
2022-12-09T17:30:39.122Z,17.45
2022-12-09T17:32:11.048Z,20.02
2022-12-09T17:33:43.974Z,21.38
2022-12-09T17:35:16.237Z,18.70
2022-12-09T17:36:48.251Z,19.35
2022-12-09T17:38:20.463Z,20.15
2022-12-09T17:40:06.069Z,18.92
2022-12-09T17:41:38.019Z,22.25
2022-12-09T17:43:09.922Z,21.42
2022-12-09T17:44:41.859Z,20.88
2022-12-09T17:46:14.033Z,18.42
2022-12-09T17:47:48.110Z,17.13
2022-12-09T17:49:21.043Z,18.30
2022-12-09T17:50:52.781Z,17.38
2022-12-09T17:52:24.709Z,16.33
2022-12-09T17:53:56.491Z,18.08
2022-12-09T17:55:29.127Z,16.77
2022-12-09T17:57:00.884Z,20.13
2022-12-09T17:58:32.684Z,18.00
2022-12-09T18:00:06.716Z,16.98
2022-12-09T18:01:46.366Z,16.25
2022-12-09T18:03:39.342Z,16.65
2022-12-09T18:05:10.213Z,16.10
2022-12-09T18:06:44.703Z,19.45
2022-12-09T18:08:16.569Z,16.88
2022-12-09T18:09:52.929Z,17.80
2022-12-09T18:11:26.704Z,16.55
2022-12-09T18:12:58.569Z,17.77
2022-12-09T18:14:30.824Z,17.40
2022-12-09T18:16:08.054Z,17.83
2022-12-09T18:17:39.889Z,17.48
2022-12-09T18:19:15.531Z,17.38
2022-12-09T18:20:47.278Z,16.98
2022-12-09T18:22:19.025Z,17.65
2022-12-09T18:23:50.824Z,18.52
2022-12-09T18:25:22.587Z,18.95
2022-12-09T18:26:54.341Z,20.20
2022-12-09T18:28:29.040Z,16.23
2022-12-09T18:30:00.801Z,15.88
2022-12-09T18:31:32.657Z,16.33
2022-12-09T18:33:04.478Z,17.40
2022-12-09T18:34:36.336Z,16.38
2022-12-09T18:36:11.010Z,16.52
2022-12-09T18:37:42.809Z,15.57
2022-12-09T18:39:16.357Z,17.58
2022-12-09T18:41:03.506Z,15.43
2022-12-09T18:42:36.215Z,16.58
2022-12-09T18:44:08.879Z,17.67
2022-12-09T18:45:40.645Z,16.33
2022-12-09T18:47:12.385Z,17.08
2022-12-09T18:48:44.323Z,22.20
2022-12-09T18:50:16.195Z,19.88
2022-12-09T18:51:50.303Z,16.58
2022-12-09T18:53:22.094Z,17.35
2022-12-09T18:54:53.826Z,17.13
2022-12-09T18:56:26.778Z,20.00
2022-12-09T18:57:58.755Z,17.05
2022-12-09T18:59:31.369Z,17.95
2022-12-09T19:01:33.162Z,17.73
2022-12-09T19:03:05.135Z,16.38
2022-12-09T19:04:37.046Z,16.38
2022-12-09T19:06:30.559Z,16.20
2022-12-09T19:08:02.360Z,16.52
2022-12-09T19:09:35.886Z,15.90
2022-12-09T19:11:07.636Z,16.80
2022-12-09T19:12:46.997Z,16.25
2022-12-09T19:14:21.509Z,15.90
2022-12-09T19:15:53.312Z,16.98
2022-12-09T19:17:25.164Z,16.02
2022-12-09T19:18:58.109Z,17.00
2022-12-09T19:20:29.953Z,17.60
2022-12-09T19:22:03.790Z,17.83
2022-12-09T19:23:37.335Z,16.05
